Time;durP1;ratioP1;P1;durP2;ratioP2;P2;SDS_P1;SDS_P2;PMS_P1;PMS_P2;Temp;Humidity;BMP_temperature;BMP_pressure;BME280_temperature;BME280_humidity;BME280_pressure;Samples;Min_cycle;Max_cycle;Signal;HPM_P1;HPM_P2
2022/12/19 00:01:21;;;;;;;54.60;20.47;;;-2.60;99.90;;;;;;5094758;28;20131;-73
2022/12/19 00:03:53;;;;;;;52.67;20.40;;;-2.60;99.90;;;;;;5095389;28;20027;-72
2022/12/19 00:06:19;;;;;;;;;;;-2.50;99.90;;;;;;5095034;28;20024;-76
2022/12/19 00:08:46;;;;;;;52.70;19.03;;;-2.50;99.90;;;;;;5096031;28;19911;-73
2022/12/19 00:11:13;;;;;;;58.03;20.23;;;-2.50;99.90;;;;;;5096028;28;20089;-73
2022/12/19 00:13:39;;;;;;;62.13;20.60;;;-2.50;99.90;;;;;;5094216;28;20046;-73
2022/12/19 00:16:12;;;;;;;64.43;22.20;;;-2.50;99.90;;;;;;5094939;28;20127;-73
2022/12/19 00:18:39;;;;;;;55.93;20.57;;;-2.50;99.90;;;;;;5094217;28;20064;-73
2022/12/19 00:21:05;;;;;;;56.57;20.00;;;-2.50;99.90;;;;;;5096051;28;20103;-72
2022/12/19 00:23:33;;;;;;;58.33;22.33;;;-2.50;99.90;;;;;;5095399;28;20028;-72
2022/12/19 00:26:28;;;;;;;61.17;22.43;;;-2.50;99.90;;;;;;5095679;28;20457;-73
2022/12/19 00:29:06;;;;;;;58.77;20.53;;;-2.50;99.90;;;;;;5093516;28;20047;-73
2022/12/19 00:31:33;;;;;;;57.10;21.00;;;-2.50;99.90;;;;;;5094922;28;20028;-73
2022/12/19 00:34:00;;;;;;;57.03;19.93;;;-2.50;99.90;;;;;;5094308;28;20028;-73
2022/12/19 00:36:31;;;;;;;65.70;23.80;;;-2.50;99.90;;;;;;5094064;28;20299;-73
2022/12/19 00:38:59;;;;;;;62.23;22.47;;;-2.50;99.90;;;;;;5094679;28;20532;-72
2022/12/19 00:41:30;;;;;;;60.67;21.47;;;-2.40;99.90;;;;;;5093920;28;20020;-73
2022/12/19 00:43:58;;;;;;;54.53;20.85;;;-2.40;99.90;;;;;;5095642;28;20020;-72
2022/12/19 00:46:24;;;;;;;58.27;20.03;;;-2.40;99.90;;;;;;5093461;28;20039;-73
2022/12/19 00:48:50;;;;;;;59.80;21.20;;;-2.30;99.90;;;;;;5094394;28;20020;-73
2022/12/19 00:51:18;;;;;;;57.30;20.47;;;-2.30;99.90;;;;;;5094314;28;20035;-72
2022/12/19 00:53:45;;;;;;;56.30;20.20;;;-2.30;99.90;;;;;;5092365;28;20039;-73
2022/12/19 00:56:14;;;;;;;60.50;22.03;;;-2.40;99.90;;;;;;5093885;28;20366;-73
2022/12/19 00:58:40;;;;;;;51.30;19.67;;;-2.40;99.90;;;;;;5094794;28;20730;-73
2022/12/19 01:01:08;;;;;;;55.87;20.97;;;-2.30;99.90;;;;;;5093815;28;20026;-73
2022/12/19 01:03:33;;;;;;;50.17;19.20;;;-2.30;99.90;;;;;;5093560;28;20119;-73
2022/12/19 01:05:59;;;;;;;56.27;20.07;;;-2.30;99.90;;;;;;5094149;28;20107;-73
2022/12/19 01:08:25;;;;;;;55.80;20.57;;;-2.30;99.90;;;;;;5093374;28;20031;-73
2022/12/19 01:10:50;;;;;;;57.30;20.33;;;-2.30;99.90;;;;;;5095032;28;20481;-73
2022/12/19 01:13:19;;;;;;;53.67;20.10;;;-2.20;99.90;;;;;;5093774;28;20135;-72
2022/12/19 01:15:44;;;;;;;54.90;21.13;;;-2.20;99.90;;;;;;5093303;28;20086;-72
2022/12/19 01:18:10;;;;;;;53.27;20.00;;;-2.20;99.90;;;;;;5093692;28;20497;-73
2022/12/19 01:20:41;;;;;;;52.77;21.07;;;-2.10;99.90;;;;;;5093323;28;20477;-73
2022/12/19 01:23:08;;;;;;;49.43;19.33;;;-2.10;99.90;;;;;;5094967;28;20028;-72
2022/12/19 01:25:35;;;;;;;54.97;21.00;;;-2.10;99.90;;;;;;5093141;28;20461;-72
2022/12/19 01:28:02;;;;;;;55.07;21.30;;;-2.10;99.90;;;;;;5095142;28;20043;-73
2022/12/19 01:30:28;;;;;;;48.50;19.47;;;-2.10;99.90;;;;;;5093141;28;20020;-73
2022/12/19 01:32:54;;;;;;;53.50;20.10;;;-2.10;99.90;;;;;;5093132;28;20389;-73
2022/12/19 01:35:20;;;;;;;59.50;21.03;;;-2.10;99.90;;;;;;5094512;28;20411;-73
2022/12/19 01:37:45;;;;;;;53.30;20.20;;;-2.10;99.90;;;;;;5092512;28;20057;-73
2022/12/19 01:40:12;;;;;;;56.83;22.17;;;-2.10;99.90;;;;;;5093478;28;20020;-73
2022/12/19 01:42:38;;;;;;;64.47;21.67;;;-2.10;99.90;;;;;;5094167;28;20059;-73
2022/12/19 01:45:06;;;;;;;51.87;20.23;;;-2.00;99.90;;;;;;5092984;28;20393;-73
2022/12/19 01:47:45;;;;;;;51.67;18.70;;;-2.00;99.90;;;;;;5092831;28;20393;-73
2022/12/19 01:50:16;;;;;;;53.97;19.07;;;-2.00;99.90;;;;;;5094415;28;20036;-71
2022/12/19 01:52:42;;;;;;;54.77;20.57;;;-2.00;99.90;;;;;;5092338;28;20077;-73
2022/12/19 01:55:09;;;;;;;56.17;19.47;;;-2.00;99.90;;;;;;5093143;28;20024;-72
2022/12/19 01:57:35;;;;;;;50.03;18.83;;;-2.00;99.90;;;;;;5092568;28;20046;-73
2022/12/19 02:00:03;;;;;;;53.93;19.90;;;-1.90;99.90;;;;;;5093106;28;20035;-72
2022/12/19 02:02:34;;;;;;;52.83;20.50;;;-2.00;99.90;;;;;;5092322;28;20031;-73
2022/12/19 02:05:03;;;;;;;52.53;19.67;;;-1.90;99.90;;;;;;5094474;28;20103;-73
2022/12/19 02:07:29;;;;;;;54.97;20.60;;;-1.90;99.90;;;;;;5092275;28;20361;-73
2022/12/19 02:09:56;;;;;;;56.27;19.93;;;-1.90;99.90;;;;;;5092945;28;20059;-73
2022/12/19 02:12:28;;;;;;;50.43;19.57;;;-1.80;99.90;;;;;;5092854;28;20055;-73
2022/12/19 02:14:55;;;;;;;59.88;22.17;;;-1.80;99.90;;;;;;5092910;28;20032;-73
2022/12/19 02:17:47;;;;;;;60.43;21.97;;;-1.80;99.90;;;;;;5092512;28;20059;-73
2022/12/19 02:20:43;;;;;;;49.83;19.45;;;-1.80;99.90;;;;;;5087977;28;20039;-72
2022/12/19 02:23:39;;;;;;;56.00;19.53;;;-1.80;99.90;;;;;;5093813;28;20062;-72
2022/12/19 02:26:11;;;;;;;52.00;19.33;;;-1.80;99.90;;;;;;5092237;28;20032;-73
2022/12/19 02:29:01;;;;;;;58.35;19.23;;;-1.80;99.90;;;;;;5091631;28;20434;-73
2022/12/19 02:31:32;;;;;;;50.03;19.27;;;-1.70;99.90;;;;;;5093126;28;20027;-77
2022/12/19 02:34:27;;;;;;;54.27;20.30;;;-1.80;99.90;;;;;;5092249;28;20032;-72
2022/12/19 02:37:08;;;;;;;51.97;20.27;;;-1.80;99.90;;;;;;5092228;28;20447;-73
2022/12/19 02:39:54;;;;;;;58.50;20.90;;;-1.80;99.90;;;;;;5091872;28;20024;-73
2022/12/19 02:42:33;;;;;;;55.47;20.87;;;-1.70;99.90;;;;;;5093569;28;20059;-73
2022/12/19 02:45:01;;;;;;;55.47;21.57;;;-1.70;99.90;;;;;;5091719;28;20028;-73
2022/12/19 02:47:28;;;;;;;58.13;20.30;;;-1.70;99.90;;;;;;5092764;28;20036;-74
2022/12/19 02:49:55;;;;;;;58.33;21.77;;;-1.60;99.90;;;;;;5093041;28;20028;-73
2022/12/19 02:52:20;;;;;;;54.70;19.20;;;-1.60;99.90;;;;;;5092165;28;20036;-73
2022/12/19 02:54:52;;;;;;;50.37;19.80;;;-1.70;99.90;;;;;;5092285;28;20103;-73
2022/12/19 02:57:25;;;;;;;54.78;19.70;;;-1.70;99.90;;;;;;5091805;28;20027;-73
2022/12/19 03:00:00;;;;;;;52.60;20.07;;;-1.70;99.90;;;;;;5091185;28;20086;-73
2022/12/19 03:02:59;;;;;;;58.23;19.87;;;-1.70;99.90;;;;;;5093368;28;20436;-72
2022/12/19 03:05:34;;;;;;;51.23;18.33;;;-1.60;99.90;;;;;;5092882;28;20024;-73
2022/12/19 03:08:20;;;;;;;55.03;20.77;;;-1.60;99.90;;;;;;5092027;28;20453;-73
2022/12/19 03:10:52;;;;;;;50.83;19.17;;;-1.60;99.90;;;;;;5091243;28;20020;-73
2022/12/19 03:13:25;;;;;;;54.35;20.20;;;-1.60;99.90;;;;;;5092883;28;20106;-73
2022/12/19 03:15:51;;;;;;;54.13;20.17;;;-1.60;99.90;;;;;;5091311;28;20633;-73
2022/12/19 03:18:18;;;;;;;53.37;20.43;;;-1.60;99.90;;;;;;5092554;28;20404;-73
2022/12/19 03:20:49;;;;;;;51.30;20.50;;;-1.60;99.90;;;;;;5091314;28;20035;-74
2022/12/19 03:23:15;;;;;;;46.03;16.13;;;-1.70;99.90;;;;;;5107190;28;20549;-74
2022/12/19 03:25:47;;;;;;;54.97;20.83;;;-1.70;99.90;;;;;;5111785;28;20267;-73
2022/12/19 03:28:21;;;;;;;43.40;15.68;;;-1.70;99.90;;;;;;5109858;28;20016;-73
2022/12/19 03:30:48;;;;;;;50.07;19.63;;;-1.70;99.90;;;;;;5104867;28;20019;-73
2022/12/19 03:33:17;;;;;;;49.10;20.47;;;-1.60;99.90;;;;;;5106529;28;20472;-73
2022/12/19 03:35:44;;;;;;;56.03;22.10;;;-1.60;99.90;;;;;;5095099;28;20028;-73
2022/12/19 03:38:12;;;;;;;53.57;20.50;;;-1.60;99.90;;;;;;5110314;28;20071;-73
2022/12/19 03:40:41;;;;;;;56.27;20.63;;;-1.60;99.90;;;;;;5111376;28;20020;-73
2022/12/19 03:43:09;;;;;;;53.90;20.13;;;-1.60;99.90;;;;;;5111630;28;20472;-73
2022/12/19 03:46:02;;;;;;;53.77;19.17;;;-1.50;99.90;;;;;;5112214;28;20028;-74
2022/12/19 03:48:45;;;;;;;59.27;21.23;;;-1.50;99.90;;;;;;5111454;28;20027;-73
2022/12/19 03:51:29;;;;;;;56.70;22.55;;;-1.60;99.90;;;;;;5112418;28;20032;-73
2022/12/19 03:54:15;;;;;;;50.37;19.83;;;-1.50;99.90;;;;;;5111048;28;20035;-73
2022/12/19 03:56:41;;;;;;;51.73;19.47;;;-1.50;99.90;;;;;;5111212;28;20028;-73
2022/12/19 03:59:29;;;;;;;53.37;19.80;;;-1.50;99.90;;;;;;5111771;28;20049;-73
2022/12/19 04:01:57;;;;;;;49.73;19.23;;;-1.40;99.90;;;;;;5112476;28;20081;-72
2022/12/19 04:04:24;;;;;;;53.43;20.73;;;-1.40;99.90;;;;;;5111580;28;20027;-73
2022/12/19 04:06:51;;;;;;;49.50;19.07;;;-1.40;99.90;;;;;;5112309;28;20361;-73
2022/12/19 04:09:19;;;;;;;50.30;20.33;;;-1.40;99.90;;;;;;5111277;28;20028;-73
2022/12/19 04:11:50;;;;;;;52.20;19.30;;;-1.40;99.90;;;;;;5112159;28;20107;-73
2022/12/19 04:14:22;;;;;;;53.10;19.60;;;-1.30;99.90;;;;;;5111684;28;20054;-73
2022/12/19 04:17:04;;;;;;;48.50;19.67;;;-1.30;99.90;;;;;;5110828;28;20051;-73
2022/12/19 04:19:51;;;;;;;45.42;17.10;;;-1.30;99.90;;;;;;5111412;28;20035;-73
2022/12/19 04:22:25;;;;;;;46.93;18.90;;;-1.40;99.90;;;;;;5111323;28;20030;-73
2022/12/19 04:24:53;;;;;;;46.63;18.17;;;-1.30;99.90;;;;;;5110893;28;20146;-73
2022/12/19 04:27:20;;;;;;;46.07;17.97;;;-1.40;99.90;;;;;;5112730;28;20026;-73
2022/12/19 04:29:48;;;;;;;48.17;18.17;;;-1.40;99.90;;;;;;5111665;28;20020;-73
2022/12/19 04:32:14;;;;;;;47.07;16.93;;;-1.40;99.90;;;;;;5115107;28;20067;-73
2022/12/19 04:34:39;;;;;;;43.67;16.57;;;-1.30;99.90;;;;;;5115695;28;20048;-73
2022/12/19 04:37:05;;;;;;;44.37;17.03;;;-1.40;99.90;;;;;;5114917;28;20475;-73
2022/12/19 04:39:31;;;;;;;46.63;18.83;;;-1.30;99.90;;;;;;5114806;28;20084;-72
2022/12/19 04:41:57;;;;;;;43.33;16.13;;;-1.30;99.90;;;;;;5113966;28;20032;-73
2022/12/19 04:44:23;;;;;;;43.83;17.70;;;-1.30;99.90;;;;;;5114769;28;20126;-73
2022/12/19 04:46:48;;;;;;;41.80;17.67;;;-1.30;99.90;;;;;;5114272;28;20380;-73
2022/12/19 04:49:14;;;;;;;47.37;18.10;;;-1.30;99.90;;;;;;5114581;28;20024;-72
2022/12/19 04:51:39;;;;;;;46.87;17.00;;;-1.30;99.90;;;;;;5115518;28;20061;-74
2022/12/19 04:54:05;;;;;;;44.83;16.17;;;-1.30;99.90;;;;;;5114583;28;20456;-73
2022/12/19 04:56:30;;;;;;;50.93;18.00;;;-1.30;99.90;;;;;;5097216;28;20023;-73
2022/12/19 04:58:59;;;;;;;42.43;16.80;;;-1.30;99.90;;;;;;5098801;28;20535;-73
2022/12/19 05:01:25;;;;;;;41.77;16.13;;;-1.30;99.90;;;;;;5115483;28;20051;-73
2022/12/19 05:03:51;;;;;;;42.97;16.33;;;-1.20;99.90;;;;;;5113832;28;20067;-73
2022/12/19 05:06:17;;;;;;;45.17;18.00;;;-1.30;99.90;;;;;;5115762;28;20475;-73
2022/12/19 05:08:43;;;;;;;47.47;17.30;;;-1.30;99.90;;;;;;5114851;28;20094;-73
2022/12/19 05:11:11;;;;;;;48.30;17.17;;;-1.20;99.90;;;;;;5114338;28;20062;-73
2022/12/19 05:13:37;;;;;;;42.77;17.53;;;-1.20;99.90;;;;;;5113984;28;20396;-76
2022/12/19 05:16:07;;;;;;;50.53;18.07;;;-1.10;99.90;;;;;;5115107;28;20024;-72
2022/12/19 05:18:34;;;;;;;43.00;17.17;;;-1.10;99.90;;;;;;5107957;28;20055;-73
2022/12/19 05:21:00;;;;;;;41.23;16.17;;;-1.10;99.90;;;;;;5094444;28;20028;-73
2022/12/19 05:23:26;;;;;;;49.10;18.03;;;-1.10;99.90;;;;;;5093765;28;20035;-73
2022/12/19 05:25:52;;;;;;;45.23;18.33;;;-1.10;99.90;;;;;;5094087;28;20029;-73
2022/12/19 05:28:18;;;;;;;48.50;18.20;;;-1.10;99.90;;;;;;5093602;28;20031;-73
2022/12/19 05:30:44;;;;;;;41.57;17.17;;;-1.10;99.90;;;;;;5092948;28;20024;-73
2022/12/19 05:33:10;;;;;;;46.33;17.87;;;-1.10;99.90;;;;;;5094621;28;20043;-73
2022/12/19 05:35:36;;;;;;;44.70;17.27;;;-1.10;99.90;;;;;;5093225;28;20181;-76
2022/12/19 05:38:03;;;;;;;44.33;17.67;;;-1.10;99.90;;;;;;5092766;28;20028;-73
2022/12/19 05:40:28;;;;;;;49.83;18.67;;;-1.10;99.90;;;;;;5094180;28;20105;-73
2022/12/19 05:42:54;;;;;;;51.03;18.47;;;-1.10;99.90;;;;;;5092577;28;20071;-73
2022/12/19 05:45:19;;;;;;;47.03;16.93;;;-1.10;99.90;;;;;;5092909;28;20382;-73
2022/12/19 05:47:45;;;;;;;48.13;17.60;;;-1.10;99.90;;;;;;5092771;28;20415;-73
2022/12/19 05:50:12;;;;;;;46.60;18.07;;;-1.10;99.90;;;;;;5094407;28;20028;-73
2022/12/19 05:52:38;;;;;;;42.90;17.67;;;-1.10;99.90;;;;;;5094043;28;20036;-75
2022/12/19 05:55:04;;;;;;;50.90;18.30;;;-1.10;99.90;;;;;;5092527;28;20073;-73
2022/12/19 05:57:30;;;;;;;43.33;18.23;;;-1.20;99.90;;;;;;5093118;28;20039;-73
2022/12/19 05:59:56;;;;;;;54.17;18.30;;;-1.10;99.90;;;;;;5092313;28;20027;-73
2022/12/19 06:02:21;;;;;;;41.20;16.60;;;-1.10;99.90;;;;;;5111697;28;20031;-73
2022/12/19 06:04:47;;;;;;;47.93;18.03;;;-1.10;99.90;;;;;;5113931;28;20102;-73
2022/12/19 06:07:13;;;;;;;44.77;18.10;;;-1.10;99.90;;;;;;5113248;28;20439;-73
2022/12/19 06:09:38;;;;;;;43.90;17.73;;;-1.10;99.90;;;;;;5112974;28;20028;-78
2022/12/19 06:12:04;;;;;;;46.27;17.80;;;-1.10;99.90;;;;;;5112487;28;20396;-72
2022/12/19 06:14:30;;;;;;;51.97;18.47;;;-1.10;99.90;;;;;;5113963;28;20031;-73
2022/12/19 06:16:55;;;;;;;44.67;17.73;;;-1.10;99.90;;;;;;5111550;28;20395;-73
2022/12/19 06:19:21;;;;;;;44.97;17.07;;;-1.10;99.90;;;;;;5090893;28;20027;-73
2022/12/19 06:21:46;;;;;;;44.13;16.47;;;-1.10;99.90;;;;;;5107703;28;20086;-74
2022/12/19 06:24:12;;;;;;;45.00;17.23;;;-1.00;99.90;;;;;;5109532;28;20487;-72
2022/12/19 06:26:38;;;;;;;48.57;18.23;;;-1.00;99.90;;;;;;5108051;28;20487;-76
2022/12/19 06:29:03;;;;;;;45.37;17.63;;;-1.00;99.90;;;;;;5105067;28;20035;-73
2022/12/19 06:31:29;;;;;;;38.17;17.23;;;-0.90;99.90;;;;;;5101652;28;20028;-73
2022/12/19 06:33:54;;;;;;;45.57;18.07;;;-0.90;99.90;;;;;;5092978;28;20019;-73
2022/12/19 06:36:29;;;;;;;45.47;17.37;;;-0.90;99.90;;;;;;5105806;28;20490;-73
2022/12/19 06:38:59;;;;;;;43.83;18.10;;;-0.90;99.90;;;;;;5110939;28;20026;-73
2022/12/19 06:44:14;;;;;;;44.20;17.47;;;-0.80;99.90;;;;;;5093055;28;20484;-73
2022/12/19 06:46:40;;;;;;;45.60;17.23;;;-0.80;99.90;;;;;;5094468;28;20038;-73
2022/12/19 06:49:06;;;;;;;52.13;18.17;;;-0.80;99.90;;;;;;5104947;28;20024;-73
2022/12/19 06:51:32;;;;;;;44.87;17.87;;;-0.80;99.90;;;;;;5104738;28;20031;-73
2022/12/19 06:53:58;;;;;;;45.97;17.67;;;-0.80;99.90;;;;;;5098995;28;20038;-73
2022/12/19 06:56:23;;;;;;;47.43;18.60;;;-0.80;99.90;;;;;;5102496;28;20027;-73
2022/12/19 06:58:49;;;;;;;46.77;18.57;;;-0.70;99.90;;;;;;5105682;28;20015;-73
2022/12/19 07:01:38;;;;;;;43.17;18.33;;;-0.70;99.90;;;;;;5104276;28;20026;-74
2022/12/19 07:04:05;;;;;;;41.83;16.43;;;-0.70;99.90;;;;;;5095561;28;20048;-74
2022/12/19 07:06:30;;;;;;;44.40;17.97;;;-0.60;99.90;;;;;;5102762;28;20020;-73
2022/12/19 07:08:56;;;;;;;44.77;18.40;;;-0.70;99.90;;;;;;5104301;28;20020;-73
2022/12/19 07:11:22;;;;;;;41.47;17.23;;;-0.70;99.90;;;;;;5106642;28;20034;-73
2022/12/19 07:13:47;;;;;;;43.60;18.13;;;-0.80;99.90;;;;;;5101284;28;20039;-74
2022/12/19 07:16:13;;;;;;;42.90;17.10;;;-0.80;99.90;;;;;;5105141;28;20027;-73
2022/12/19 07:18:39;;;;;;;47.70;19.43;;;-0.80;99.90;;;;;;5087171;28;20500;-73
2022/12/19 07:21:06;;;;;;;39.27;16.23;;;-0.80;99.90;;;;;;5102437;28;20080;-73
2022/12/19 07:23:33;;;;;;;44.07;17.83;;;-0.70;99.90;;;;;;5110008;28;20039;-72
2022/12/19 07:26:00;;;;;;;47.07;18.83;;;-0.70;99.90;;;;;;5108934;28;20381;-73
2022/12/19 07:28:25;;;;;;;43.10;16.77;;;-0.70;99.90;;;;;;5106075;28;20028;-73
2022/12/19 07:30:51;;;;;;;41.23;17.27;;;-0.80;99.90;;;;;;5108779;28;20028;-73
2022/12/19 07:33:17;;;;;;;43.50;18.00;;;-0.70;99.90;;;;;;5110984;28;20035;-73
2022/12/19 07:35:42;;;;;;;46.80;16.93;;;-0.70;99.90;;;;;;5101943;28;20465;-77
2022/12/19 07:38:08;;;;;;;44.00;17.90;;;-0.70;99.90;;;;;;5102887;28;20491;-73
2022/12/19 07:40:35;;;;;;;39.37;16.53;;;-0.70;99.90;;;;;;5108213;28;20115;-73
2022/12/19 07:43:01;;;;;;;45.70;19.40;;;-0.70;99.90;;;;;;5094542;28;20460;-73
2022/12/19 07:45:28;;;;;;;46.83;18.00;;;-0.60;99.90;;;;;;5111210;28;20108;-73
2022/12/19 07:47:54;;;;;;;46.73;18.40;;;-0.60;99.90;;;;;;5106068;28;20035;-73
2022/12/19 07:50:20;;;;;;;42.37;16.93;;;-0.60;99.90;;;;;;5105085;28;20027;-72
2022/12/19 07:52:45;;;;;;;41.00;17.90;;;-0.50;99.90;;;;;;5111886;28;20058;-77
2022/12/19 07:55:12;;;;;;;46.23;17.50;;;-0.50;99.90;;;;;;5112773;28;20102;-73
2022/12/19 07:57:38;;;;;;;44.73;18.63;;;-0.50;99.90;;;;;;5111093;28;20081;-73
2022/12/19 08:00:04;;;;;;;45.93;18.27;;;-0.50;99.90;;;;;;5110376;28;20020;-73
2022/12/19 08:02:30;;;;;;;49.07;18.83;;;-0.40;99.90;;;;;;5110999;28;20034;-74
2022/12/19 08:04:55;;;;;;;47.73;18.10;;;-0.40;99.90;;;;;;5094380;28;20384;-73
2022/12/19 08:07:21;;;;;;;45.07;19.23;;;-0.30;99.90;;;;;;5100719;28;20035;-73
2022/12/19 08:09:47;;;;;;;45.80;18.30;;;-0.30;99.90;;;;;;5104650;28;20077;-74
2022/12/19 08:12:12;;;;;;;45.73;17.93;;;-0.30;99.90;;;;;;5094441;28;20070;-73
2022/12/19 08:14:38;;;;;;;44.80;18.53;;;-0.20;99.90;;;;;;5095552;28;20055;-73
2022/12/19 08:17:03;;;;;;;41.00;16.83;;;-0.20;99.90;;;;;;5113841;28;20043;-73
2022/12/19 08:19:29;;;;;;;40.67;17.63;;;-0.20;99.90;;;;;;5108353;28;20027;-73
2022/12/19 08:21:54;;;;;;;44.37;17.60;;;-0.20;99.90;;;;;;5095040;28;20032;-73
2022/12/19 08:24:20;;;;;;;45.87;19.23;;;-0.10;99.90;;;;;;5110143;28;20413;-72
2022/12/19 08:26:46;;;;;;;45.73;18.43;;;-0.10;99.90;;;;;;5097604;28;20028;-77
2022/12/19 08:29:11;;;;;;;46.30;19.13;;;-0.10;99.90;;;;;;5108341;28;20455;-73
2022/12/19 08:31:37;;;;;;;47.93;20.27;;;-0.10;99.90;;;;;;5101924;28;20377;-73
2022/12/19 08:34:03;;;;;;;50.53;19.57;;;-0.10;99.90;;;;;;5106732;28;20617;-73
2022/12/19 08:36:29;;;;;;;45.33;18.77;;;-0.10;99.90;;;;;;5110581;28;20023;-73
2022/12/19 08:38:55;;;;;;;45.87;19.03;;;0.00;99.90;;;;;;5109396;28;20035;-73
2022/12/19 08:41:21;;;;;;;44.53;19.00;;;0.00;99.90;;;;;;5107907;28;20030;-73
2022/12/19 08:43:51;;;;;;;43.97;18.67;;;0.00;99.90;;;;;;5108340;28;20384;-73
2022/12/19 08:46:18;;;;;;;46.70;18.23;;;0.10;99.90;;;;;;5106179;28;20028;-74
2022/12/19 08:48:44;;;;;;;44.20;18.37;;;0.10;99.90;;;;;;5105054;28;20034;-77
2022/12/19 08:51:10;;;;;;;56.60;20.63;;;0.20;99.90;;;;;;5104819;28;20028;-73
2022/12/19 08:53:38;;;;;;;52.97;20.00;;;0.20;99.90;;;;;;5115186;28;20045;-73
2022/12/19 08:56:07;;;;;;;50.03;20.50;;;0.20;99.90;;;;;;5103068;28;20020;-73
2022/12/19 08:58:33;;;;;;;47.07;19.57;;;0.20;99.90;;;;;;5093833;28;20028;-73
2022/12/19 09:01:00;;;;;;;44.80;18.33;;;0.20;99.90;;;;;;5112676;28;20066;-73
2022/12/19 09:03:26;;;;;;;41.10;18.37;;;0.20;99.90;;;;;;5107377;28;20032;-73
2022/12/19 09:06:11;;;;;;;40.97;17.70;;;0.30;99.90;;;;;;5094246;28;20076;-73
2022/12/19 09:08:37;;;;;;;48.97;18.47;;;0.40;99.90;;;;;;5111724;28;20023;-73
2022/12/19 09:11:04;;;;;;;48.47;17.80;;;0.40;99.90;;;;;;5096293;28;20019;-73
2022/12/19 09:13:30;;;;;;;41.80;16.63;;;0.40;99.90;;;;;;5104408;28;20090;-73
2022/12/19 09:16:24;;;;;;;44.70;17.20;;;0.40;99.90;;;;;;5103724;28;20024;-73
2022/12/19 09:18:52;;;;;;;47.90;18.27;;;0.50;99.90;;;;;;5106927;28;20044;-73
2022/12/19 09:21:20;;;;;;;41.97;17.83;;;0.60;99.90;;;;;;5098514;28;20110;-73
2022/12/19 09:23:53;;;;;;;44.57;17.90;;;0.60;99.90;;;;;;5103841;28;20080;-75
2022/12/19 09:26:21;;;;;;;41.70;17.63;;;0.60;99.90;;;;;;5103372;28;20488;-73
2022/12/19 09:28:47;;;;;;;43.70;17.53;;;0.70;99.90;;;;;;5096607;28;20396;-73
2022/12/19 09:31:19;;;;;;;43.50;17.67;;;0.70;99.90;;;;;;5106600;28;20104;-73
2022/12/19 09:33:45;;;;;;;48.97;18.45;;;0.70;99.90;;;;;;5100025;28;20488;-76
2022/12/19 09:36:14;;;;;;;39.23;17.23;;;0.80;99.90;;;;;;5105090;28;20035;-74
2022/12/19 09:38:40;;;;;;;47.90;17.37;;;0.90;99.90;;;;;;5101820;28;20074;-73
2022/12/19 09:41:33;;;;;;;41.30;16.70;;;0.90;99.90;;;;;;5101289;28;20881;-73
2022/12/19 09:44:16;;;;;;;45.30;19.03;;;0.90;99.90;;;;;;5102311;28;20020;-74
2022/12/19 09:47:13;;;;;;;39.70;16.80;;;0.90;99.90;;;;;;5101605;28;20056;-75
2022/12/19 09:49:44;;;;;;;44.47;17.40;;;1.00;99.90;;;;;;5101089;28;20118;-73
2022/12/19 09:52:18;;;;;;;38.40;16.27;;;1.00;99.90;;;;;;5099553;28;20489;-73
2022/12/19 09:54:47;;;;;;;42.37;17.40;;;1.10;99.90;;;;;;5109059;28;20391;-76
2022/12/19 09:57:51;;;;;;;33.73;15.67;;;1.10;99.90;;;;;;5108942;28;20019;-73
2022/12/19 10:00:19;;;;;;;41.13;17.43;;;1.20;99.90;;;;;;5106308;28;20024;-73
2022/12/19 10:03:06;;;;;;;41.83;16.83;;;1.20;99.90;;;;;;5096222;28;20060;-74
2022/12/19 10:05:41;;;;;;;36.07;15.93;;;1.30;99.90;;;;;;5104978;28;20173;-73
2022/12/19 10:08:35;;;;;;;35.80;16.33;;;1.40;99.90;;;;;;5092026;28;20039;-73
2022/12/19 10:11:14;;;;;;;42.87;16.47;;;1.40;99.90;;;;;;5108673;28;20028;-73
2022/12/19 10:14:00;;;;;;;43.87;16.63;;;1.50;99.90;;;;;;5102358;28;20036;-73
2022/12/19 10:16:47;;;;;;;39.10;17.10;;;1.50;99.90;;;;;;5103801;28;20451;-74
2022/12/19 10:19:24;;;;;;;40.90;16.47;;;1.50;99.90;;;;;;5104281;28;20028;-74
2022/12/19 10:22:15;;;;;;;41.70;18.03;;;1.50;99.90;;;;;;5108217;28;20032;-74
2022/12/19 10:25:22;;;;;;;36.87;16.17;;;1.50;99.90;;;;;;5102974;28;20020;-73
2022/12/19 10:27:53;;;;;;;39.40;17.27;;;1.50;99.90;;;;;;5104108;28;20263;-74
2022/12/19 10:30:20;;;;;;;38.45;16.65;;;1.60;99.90;;;;;;5104727;28;20032;-73
2022/12/19 10:33:33;;;;;;;42.60;17.17;;;1.60;99.90;;;;;;5097708;28;20450;-73
2022/12/19 10:36:00;;;;;;;38.30;16.33;;;1.60;99.90;;;;;;5038136;28;20025;-73
2022/12/19 10:38:52;;;;;;;42.90;17.20;;;1.70;99.90;;;;;;5018494;28;20095;-73
2022/12/19 10:41:26;;;;;;;41.85;17.13;;;1.70;99.90;;;;;;5041946;28;20069;-74
2022/12/19 10:44:04;;;;;;;36.63;16.27;;;1.80;99.90;;;;;;5033313;28;20041;-74
2022/12/19 10:46:41;;;;;;;37.27;16.30;;;1.80;99.90;;;;;;5033715;28;20092;-74
2022/12/19 10:49:17;;;;;;;36.27;17.33;;;1.80;99.90;;;;;;5045705;28;20032;-76
2022/12/19 10:51:59;;;;;;;45.33;18.20;;;1.90;99.90;;;;;;5049160;28;20124;-76
2022/12/19 10:54:47;;;;;;;40.90;16.57;;;1.90;99.90;;;;;;5027472;28;20032;-74
2022/12/19 10:57:21;;;;;;;43.33;16.73;;;1.90;99.90;;;;;;5043620;28;20047;-74
2022/12/19 11:00:15;;;;;;;41.60;17.17;;;1.90;99.90;;;;;;5043759;28;20055;-77
2022/12/19 11:02:46;;;;;;;41.77;17.53;;;1.90;99.90;;;;;;5025472;28;20120;-74
2022/12/19 11:05:27;;;;;;;41.03;16.02;;;1.90;99.90;;;;;;5046880;28;20557;-74
2022/12/19 11:08:09;;;;;;;39.77;18.10;;;2.00;99.90;;;;;;5097974;28;20415;-74
2022/12/19 11:10:46;;;;;;;39.28;16.63;;;2.00;99.90;;;;;;5098539;28;20110;-74
2022/12/19 11:13:44;;;;;;;45.37;17.73;;;2.00;99.90;;;;;;5104527;28;20039;-74
2022/12/19 11:16:10;;;;;;;37.67;17.43;;;2.00;99.90;;;;;;5091626;28;20043;-75
2022/12/19 11:18:38;;;;;;;41.70;18.50;;;2.00;99.90;;;;;;5094686;28;20393;-74
2022/12/19 11:21:03;;;;;;;42.67;17.43;;;2.00;99.90;;;;;;5092612;28;20032;-74
2022/12/19 11:23:30;;;;;;;42.80;18.50;;;2.00;99.90;;;;;;5105591;28;20027;-74
2022/12/19 11:26:05;;;;;;;42.17;19.60;;;2.00;99.90;;;;;;5090464;28;20055;-74
2022/12/19 11:28:38;;;;;;;43.40;18.37;;;2.00;99.90;;;;;;5099933;28;20090;-74
2022/12/19 11:31:25;;;;;;;48.87;19.87;;;2.00;99.90;;;;;;5103676;28;20031;-74
2022/12/19 11:34:01;;;;;;;45.90;19.27;;;2.00;99.90;;;;;;5100067;28;20038;-75
2022/12/19 11:36:48;;;;;;;50.43;19.93;;;2.00;99.90;;;;;;5108962;28;20016;-73
2022/12/19 11:39:46;;;;;;;47.90;21.57;;;2.10;99.90;;;;;;5110127;28;20354;-74
2022/12/19 11:42:22;;;;;;;49.07;19.97;;;2.10;99.90;;;;;;5073999;28;20535;-74
2022/12/19 11:44:52;;;;;;;46.07;20.53;;;2.10;99.90;;;;;;5107202;28;20418;-78
2022/12/19 11:47:38;;;;;;;49.93;21.80;;;2.10;99.90;;;;;;5117213;28;20051;-74
2022/12/19 11:50:24;;;;;;;67.13;26.00;;;2.20;99.90;;;;;;5112927;28;20028;-74
2022/12/19 11:53:14;;;;;;;69.57;27.40;;;2.20;99.90;;;;;;5109512;28;20032;-75
2022/12/19 11:55:54;;;;;;;58.77;24.83;;;2.20;99.90;;;;;;5112954;28;20499;-74
2022/12/19 11:58:24;;;;;;;51.73;21.97;;;2.30;99.90;;;;;;5119365;27;20111;-73
2022/12/19 12:01:21;;;;;;;44.80;18.30;;;2.30;99.90;;;;;;5113412;28;20050;-76
2022/12/19 12:03:47;;;;;;;41.30;17.83;;;2.30;99.90;;;;;;5110511;28;20019;-77
2022/12/19 12:06:16;;;;;;;36.37;15.77;;;2.30;99.90;;;;;;5108850;28;20356;-73
2022/12/19 12:08:52;;;;;;;40.23;17.03;;;2.40;99.90;;;;;;5117875;28;20027;-74
2022/12/19 12:11:39;;;;;;;38.17;16.53;;;2.50;99.90;;;;;;5117396;28;20034;-73
2022/12/19 12:14:18;;;;;;;38.50;16.03;;;2.50;99.90;;;;;;5107874;28;20189;-74
2022/12/19 12:16:54;;;;;;;40.77;17.77;;;2.50;99.90;;;;;;5094252;28;20052;-74
2022/12/19 12:19:47;;;;;;;39.50;16.73;;;2.50;99.90;;;;;;5099012;28;20027;-73
2022/12/19 12:22:41;;;;;;;39.63;16.73;;;2.50;99.90;;;;;;5084450;28;20036;-74
2022/12/19 12:25:37;;;;;;;34.63;15.80;;;2.50;99.90;;;;;;5106888;28;20032;-74
2022/12/19 12:28:06;;;;;;;38.60;15.83;;;2.50;99.90;;;;;;5117363;28;20071;-74
2022/12/19 12:30:52;;;;;;;36.37;15.17;;;2.50;99.90;;;;;;5117340;28;20032;-73
2022/12/19 12:33:52;;;;;;;38.67;15.87;;;2.50;99.90;;;;;;5118368;28;20047;-73
2022/12/19 12:36:38;;;;;;;39.60;16.57;;;2.50;99.90;;;;;;5117884;28;20027;-74
2022/12/19 12:39:17;;;;;;;41.87;16.33;;;2.60;99.90;;;;;;5118061;27;20024;-74
2022/12/19 12:42:22;;;;;;;39.43;16.00;;;2.50;99.90;;;;;;5111444;28;20020;-74
2022/12/19 12:44:52;;;;;;;36.47;15.80;;;2.60;99.90;;;;;;5079414;28;20036;-75
2022/12/19 12:47:21;;;;;;;38.93;17.23;;;2.60;99.90;;;;;;5117846;28;20057;-74
2022/12/19 12:49:55;;;;;;;43.53;17.73;;;2.60;99.90;;;;;;5115600;28;20024;-75
2022/12/19 12:52:26;;;;;;;39.50;17.37;;;2.60;99.90;;;;;;5114445;28;20438;-74
2022/12/19 12:54:54;;;;;;;42.03;17.40;;;2.60;99.90;;;;;;5113807;28;20046;-76
2022/12/19 12:57:25;;;;;;;39.53;17.60;;;2.70;99.90;;;;;;5110911;28;20139;-75